sensor_id;sensor_type;location;lat;lon;timestamp;P1;durP1;ratioP1;P2;durP2;ratioP2
42978;SDS011;28616;44.746;19.678;2023-01-30T00:00:49;86.65;;;39.47;;
42978;SDS011;28616;44.746;19.678;2023-01-30T00:03:16;95.03;;;40.83;;
42978;SDS011;28616;44.746;19.678;2023-01-30T00:05:42;79.00;;;36.00;;
42978;SDS011;28616;44.746;19.678;2023-01-30T00:08:08;73.78;;;34.67;;
42978;SDS011;28616;44.746;19.678;2023-01-30T00:10:34;73.18;;;33.28;;
42978;SDS011;28616;44.746;19.678;2023-01-30T00:12:59;70.28;;;34.00;;
42978;SDS011;28616;44.746;19.678;2023-01-30T00:15:25;74.88;;;34.15;;
42978;SDS011;28616;44.746;19.678;2023-01-30T00:17:51;75.22;;;32.80;;
42978;SDS011;28616;44.746;19.678;2023-01-30T00:20:16;72.00;;;33.13;;
42978;SDS011;28616;44.746;19.678;2023-01-30T00:22:43;105.00;;;43.78;;
42978;SDS011;28616;44.746;19.678;2023-01-30T00:25:09;108.63;;;46.60;;
42978;SDS011;28616;44.746;19.678;2023-01-30T00:27:34;99.15;;;43.97;;
42978;SDS011;28616;44.746;19.678;2023-01-30T00:30:00;102.10;;;44.88;;
42978;SDS011;28616;44.746;19.678;2023-01-30T00:32:28;104.47;;;44.28;;
42978;SDS011;28616;44.746;19.678;2023-01-30T00:34:54;97.63;;;43.95;;
42978;SDS011;28616;44.746;19.678;2023-01-30T00:37:19;89.60;;;40.47;;
42978;SDS011;28616;44.746;19.678;2023-01-30T00:39:45;100.63;;;42.92;;
42978;SDS011;28616;44.746;19.678;2023-01-30T00:42:11;114.90;;;49.13;;
42978;SDS011;28616;44.746;19.678;2023-01-30T00:44:55;164.00;;;63.33;;
42978;SDS011;28616;44.746;19.678;2023-01-30T00:47:39;137.18;;;57.08;;
42978;SDS011;28616;44.746;19.678;2023-01-30T00:50:04;111.47;;;49.38;;
42978;SDS011;28616;44.746;19.678;2023-01-30T00:52:30;102.80;;;46.33;;
42978;SDS011;28616;44.746;19.678;2023-01-30T00:54:56;127.13;;;53.22;;
42978;SDS011;28616;44.746;19.678;2023-01-30T00:57:22;125.68;;;53.72;;
42978;SDS011;28616;44.746;19.678;2023-01-30T00:59:47;127.43;;;50.88;;
42978;SDS011;28616;44.746;19.678;2023-01-30T01:02:13;111.75;;;49.95;;
42978;SDS011;28616;44.746;19.678;2023-01-30T01:04:39;99.65;;;43.63;;
42978;SDS011;28616;44.746;19.678;2023-01-30T01:07:08;93.00;;;43.53;;
42978;SDS011;28616;44.746;19.678;2023-01-30T01:09:34;110.10;;;48.50;;
42978;SDS011;28616;44.746;19.678;2023-01-30T01:12:00;122.55;;;53.88;;
42978;SDS011;28616;44.746;19.678;2023-01-30T01:14:26;109.70;;;51.13;;
42978;SDS011;28616;44.746;19.678;2023-01-30T01:16:51;110.85;;;48.83;;
42978;SDS011;28616;44.746;19.678;2023-01-30T01:19:17;120.97;;;53.13;;
42978;SDS011;28616;44.746;19.678;2023-01-30T01:21:43;109.93;;;45.90;;
42978;SDS011;28616;44.746;19.678;2023-01-30T01:24:10;124.35;;;51.95;;
42978;SDS011;28616;44.746;19.678;2023-01-30T01:26:37;111.85;;;49.10;;
42978;SDS011;28616;44.746;19.678;2023-01-30T01:29:03;121.93;;;50.88;;
42978;SDS011;28616;44.746;19.678;2023-01-30T01:31:29;96.25;;;43.30;;
42978;SDS011;28616;44.746;19.678;2023-01-30T01:33:55;98.70;;;43.70;;
42978;SDS011;28616;44.746;19.678;2023-01-30T01:36:21;107.55;;;44.13;;
42978;SDS011;28616;44.746;19.678;2023-01-30T01:38:47;100.68;;;43.83;;
42978;SDS011;28616;44.746;19.678;2023-01-30T01:41:13;96.53;;;42.97;;
42978;SDS011;28616;44.746;19.678;2023-01-30T01:46:55;99.82;;;42.95;;
42978;SDS011;28616;44.746;19.678;2023-01-30T01:49:27;95.45;;;42.10;;
42978;SDS011;28616;44.746;19.678;2023-01-30T01:52:17;84.80;;;36.53;;
42978;SDS011;28616;44.746;19.678;2023-01-30T01:54:42;86.05;;;38.47;;
42978;SDS011;28616;44.746;19.678;2023-01-30T02:00:10;84.57;;;35.78;;
42978;SDS011;28616;44.746;19.678;2023-01-30T02:02:39;74.00;;;33.42;;
42978;SDS011;28616;44.746;19.678;2023-01-30T02:05:37;77.80;;;33.42;;
42978;SDS011;28616;44.746;19.678;2023-01-30T02:08:53;65.60;;;30.15;;
42978;SDS011;28616;44.746;19.678;2023-01-30T02:13:42;76.10;;;29.38;;
42978;SDS011;28616;44.746;19.678;2023-01-30T02:16:09;79.85;;;32.95;;
42978;SDS011;28616;44.746;19.678;2023-01-30T02:18:36;72.95;;;31.60;;
42978;SDS011;28616;44.746;19.678;2023-01-30T02:37:14;60.38;;;25.35;;
42978;SDS011;28616;44.746;19.678;2023-01-30T02:39:48;61.42;;;26.10;;
42978;SDS011;28616;44.746;19.678;2023-01-30T02:46:00;66.63;;;30.02;;
42978;SDS011;28616;44.746;19.678;2023-01-30T02:48:37;64.45;;;28.88;;
42978;SDS011;28616;44.746;19.678;2023-01-30T02:51:20;66.05;;;29.23;;
42978;SDS011;28616;44.746;19.678;2023-01-30T02:53:50;54.33;;;23.95;;
42978;SDS011;28616;44.746;19.678;2023-01-30T02:56:17;47.85;;;22.42;;
42978;SDS011;28616;44.746;19.678;2023-01-30T02:58:45;48.75;;;22.23;;
42978;SDS011;28616;44.746;19.678;2023-01-30T03:12:48;47.22;;;20.83;;
42978;SDS011;28616;44.746;19.678;2023-01-30T03:17:52;47.58;;;22.80;;
42978;SDS011;28616;44.746;19.678;2023-01-30T03:20:19;53.53;;;22.95;;
42978;SDS011;28616;44.746;19.678;2023-01-30T03:22:46;47.55;;;22.60;;
42978;SDS011;28616;44.746;19.678;2023-01-30T03:25:13;46.70;;;21.75;;
42978;SDS011;28616;44.746;19.678;2023-01-30T03:27:43;41.60;;;19.58;;
42978;SDS011;28616;44.746;19.678;2023-01-30T03:30:09;54.25;;;22.90;;
42978;SDS011;28616;44.746;19.678;2023-01-30T03:32:36;49.08;;;22.70;;
42978;SDS011;28616;44.746;19.678;2023-01-30T03:35:01;47.20;;;22.25;;
42978;SDS011;28616;44.746;19.678;2023-01-30T03:37:27;42.95;;;19.85;;
42978;SDS011;28616;44.746;19.678;2023-01-30T03:39:53;44.58;;;21.83;;
42978;SDS011;28616;44.746;19.678;2023-01-30T03:42:19;45.78;;;22.60;;
42978;SDS011;28616;44.746;19.678;2023-01-30T03:44:44;50.63;;;21.83;;
42978;SDS011;28616;44.746;19.678;2023-01-30T03:47:10;38.17;;;18.95;;
42978;SDS011;28616;44.746;19.678;2023-01-30T03:49:36;57.67;;;26.38;;
42978;SDS011;28616;44.746;19.678;2023-01-30T03:52:01;48.72;;;23.63;;
42978;SDS011;28616;44.746;19.678;2023-01-30T03:54:27;48.72;;;23.60;;
42978;SDS011;28616;44.746;19.678;2023-01-30T03:56:53;40.88;;;20.65;;
42978;SDS011;28616;44.746;19.678;2023-01-30T03:59:18;35.97;;;18.40;;
42978;SDS011;28616;44.746;19.678;2023-01-30T04:01:44;34.40;;;16.60;;
42978;SDS011;28616;44.746;19.678;2023-01-30T04:04:10;37.95;;;18.73;;
42978;SDS011;28616;44.746;19.678;2023-01-30T04:06:35;38.58;;;19.80;;
42978;SDS011;28616;44.746;19.678;2023-01-30T04:09:01;48.78;;;22.88;;
42978;SDS011;28616;44.746;19.678;2023-01-30T04:11:27;46.92;;;22.65;;
42978;SDS011;28616;44.746;19.678;2023-01-30T04:13:52;107.22;;;51.75;;
42978;SDS011;28616;44.746;19.678;2023-01-30T04:16:19;94.30;;;50.53;;
42978;SDS011;28616;44.746;19.678;2023-01-30T04:18:48;56.47;;;29.10;;
42978;SDS011;28616;44.746;19.678;2023-01-30T04:21:15;63.38;;;32.65;;
42978;SDS011;28616;44.746;19.678;2023-01-30T04:23:41;48.58;;;25.38;;
42978;SDS011;28616;44.746;19.678;2023-01-30T04:26:07;52.60;;;26.42;;
42978;SDS011;28616;44.746;19.678;2023-01-30T04:28:33;37.50;;;19.83;;
42978;SDS011;28616;44.746;19.678;2023-01-30T04:30:59;52.40;;;25.17;;
42978;SDS011;28616;44.746;19.678;2023-01-30T04:33:25;51.70;;;23.85;;
42978;SDS011;28616;44.746;19.678;2023-01-30T04:35:55;40.30;;;19.08;;
42978;SDS011;28616;44.746;19.678;2023-01-30T04:38:23;42.00;;;21.67;;
42978;SDS011;28616;44.746;19.678;2023-01-30T04:40:50;49.75;;;23.52;;
42978;SDS011;28616;44.746;19.678;2023-01-30T04:43:17;46.75;;;23.52;;
42978;SDS011;28616;44.746;19.678;2023-01-30T04:45:44;41.85;;;22.27;;
42978;SDS011;28616;44.746;19.678;2023-01-30T04:48:11;70.40;;;32.00;;
42978;SDS011;28616;44.746;19.678;2023-01-30T04:50:38;59.90;;;28.27;;
42978;SDS011;28616;44.746;19.678;2023-01-30T04:53:04;53.58;;;25.58;;
42978;SDS011;28616;44.746;19.678;2023-01-30T04:55:30;60.58;;;28.25;;
42978;SDS011;28616;44.746;19.678;2023-01-30T04:57:56;79.07;;;33.20;;
42978;SDS011;28616;44.746;19.678;2023-01-30T05:00:22;133.45;;;49.63;;
42978;SDS011;28616;44.746;19.678;2023-01-30T05:02:47;180.55;;;64.13;;
42978;SDS011;28616;44.746;19.678;2023-01-30T05:05:13;258.58;;;85.68;;
42978;SDS011;28616;44.746;19.678;2023-01-30T05:07:39;132.93;;;54.55;;
42978;SDS011;28616;44.746;19.678;2023-01-30T05:10:04;89.20;;;41.65;;
42978;SDS011;28616;44.746;19.678;2023-01-30T05:12:31;123.45;;;56.75;;
42978;SDS011;28616;44.746;19.678;2023-01-30T05:14:56;99.10;;;45.58;;
42978;SDS011;28616;44.746;19.678;2023-01-30T05:17:22;90.78;;;41.47;;
42978;SDS011;28616;44.746;19.678;2023-01-30T05:19:48;89.97;;;40.58;;
42978;SDS011;28616;44.746;19.678;2023-01-30T05:22:13;104.47;;;41.83;;
42978;SDS011;28616;44.746;19.678;2023-01-30T05:24:39;68.97;;;32.65;;
42978;SDS011;28616;44.746;19.678;2023-01-30T05:27:05;50.75;;;23.45;;
42978;SDS011;28616;44.746;19.678;2023-01-30T05:29:30;51.50;;;25.45;;
42978;SDS011;28616;44.746;19.678;2023-01-30T05:31:56;44.88;;;24.13;;
42978;SDS011;28616;44.746;19.678;2023-01-30T05:34:22;70.65;;;31.13;;
42978;SDS011;28616;44.746;19.678;2023-01-30T05:36:47;68.25;;;29.80;;
42978;SDS011;28616;44.746;19.678;2023-01-30T05:39:13;67.60;;;31.25;;
42978;SDS011;28616;44.746;19.678;2023-01-30T05:41:39;68.15;;;30.05;;
42978;SDS011;28616;44.746;19.678;2023-01-30T05:44:05;85.95;;;34.55;;
42978;SDS011;28616;44.746;19.678;2023-01-30T05:46:30;97.80;;;35.15;;
42978;SDS011;28616;44.746;19.678;2023-01-30T05:48:56;130.27;;;44.97;;
42978;SDS011;28616;44.746;19.678;2023-01-30T05:51:24;68.05;;;30.83;;
42978;SDS011;28616;44.746;19.678;2023-01-30T05:53:50;63.53;;;25.83;;
42978;SDS011;28616;44.746;19.678;2023-01-30T05:56:17;196.38;;;66.15;;
42978;SDS011;28616;44.746;19.678;2023-01-30T05:58:48;180.48;;;60.90;;
42978;SDS011;28616;44.746;19.678;2023-01-30T06:01:18;127.85;;;49.33;;
42978;SDS011;28616;44.746;19.678;2023-01-30T06:03:45;119.57;;;48.25;;
42978;SDS011;28616;44.746;19.678;2023-01-30T06:06:11;131.38;;;53.55;;
42978;SDS011;28616;44.746;19.678;2023-01-30T06:08:37;128.27;;;57.03;;
42978;SDS011;28616;44.746;19.678;2023-01-30T06:11:04;137.95;;;56.47;;
42978;SDS011;28616;44.746;19.678;2023-01-30T06:13:35;172.82;;;67.07;;
42978;SDS011;28616;44.746;19.678;2023-01-30T06:16:01;98.20;;;46.13;;
42978;SDS011;28616;44.746;19.678;2023-01-30T06:18:27;107.95;;;46.15;;
42978;SDS011;28616;44.746;19.678;2023-01-30T06:20:53;72.95;;;35.30;;
42978;SDS011;28616;44.746;19.678;2023-01-30T06:23:20;92.78;;;43.30;;
42978;SDS011;28616;44.746;19.678;2023-01-30T06:25:48;109.32;;;44.85;;
42978;SDS011;28616;44.746;19.678;2023-01-30T06:28:14;303.60;;;80.57;;
42978;SDS011;28616;44.746;19.678;2023-01-30T06:30:41;135.73;;;43.10;;
42978;SDS011;28616;44.746;19.678;2023-01-30T06:33:08;102.50;;;36.78;;
42978;SDS011;28616;44.746;19.678;2023-01-30T06:35:37;126.05;;;43.72;;
42978;SDS011;28616;44.746;19.678;2023-01-30T06:38:04;377.95;;;117.47;;
42978;SDS011;28616;44.746;19.678;2023-01-30T06:40:30;426.13;;;132.48;;
42978;SDS011;28616;44.746;19.678;2023-01-30T06:42:56;287.02;;;97.30;;
42978;SDS011;28616;44.746;19.678;2023-01-30T06:45:22;191.95;;;68.97;;
42978;SDS011;28616;44.746;19.678;2023-01-30T06:50:15;107.60;;;50.10;;
42978;SDS011;28616;44.746;19.678;2023-01-30T06:52:43;98.63;;;50.20;;
42978;SDS011;28616;44.746;19.678;2023-01-30T06:55:10;77.03;;;39.78;;
42978;SDS011;28616;44.746;19.678;2023-01-30T06:57:37;74.00;;;35.70;;
42978;SDS011;28616;44.746;19.678;2023-01-30T07:00:07;77.00;;;39.42;;
42978;SDS011;28616;44.746;19.678;2023-01-30T07:02:42;99.85;;;44.80;;
42978;SDS011;28616;44.746;19.678;2023-01-30T07:05:08;92.68;;;43.25;;
42978;SDS011;28616;44.746;19.678;2023-01-30T07:07:35;82.50;;;39.45;;
42978;SDS011;28616;44.746;19.678;2023-01-30T07:10:01;71.07;;;34.33;;
42978;SDS011;28616;44.746;19.678;2023-01-30T07:12:28;78.55;;;37.97;;
42978;SDS011;28616;44.746;19.678;2023-01-30T07:14:54;90.30;;;41.45;;
42978;SDS011;28616;44.746;19.678;2023-01-30T07:17:20;149.25;;;66.40;;
42978;SDS011;28616;44.746;19.678;2023-01-30T07:19:46;87.38;;;42.30;;
42978;SDS011;28616;44.746;19.678;2023-01-30T07:22:12;79.30;;;37.80;;
42978;SDS011;28616;44.746;19.678;2023-01-30T07:24:38;87.43;;;38.20;;
42978;SDS011;28616;44.746;19.678;2023-01-30T07:27:08;78.32;;;36.10;;
42978;SDS011;28616;44.746;19.678;2023-01-30T07:29:35;76.35;;;38.67;;
42978;SDS011;28616;44.746;19.678;2023-01-30T07:32:02;61.28;;;29.85;;
42978;SDS011;28616;44.746;19.678;2023-01-30T07:34:29;72.55;;;33.88;;
42978;SDS011;28616;44.746;19.678;2023-01-30T07:36:54;102.13;;;49.45;;
42978;SDS011;28616;44.746;19.678;2023-01-30T07:39:20;94.68;;;45.17;;
42978;SDS011;28616;44.746;19.678;2023-01-30T07:41:46;155.38;;;63.28;;
42978;SDS011;28616;44.746;19.678;2023-01-30T07:44:12;84.65;;;41.50;;
42978;SDS011;28616;44.746;19.678;2023-01-30T07:46:38;226.90;;;90.45;;
42978;SDS011;28616;44.746;19.678;2023-01-30T07:49:04;92.45;;;43.63;;
42978;SDS011;28616;44.746;19.678;2023-01-30T07:51:31;54.90;;;27.20;;
42978;SDS011;28616;44.746;19.678;2023-01-30T07:53:57;49.17;;;33.05;;
42978;SDS011;28616;44.746;19.678;2023-01-30T07:56:25;43.70;;;21.42;;
42978;SDS011;28616;44.746;19.678;2023-01-30T07:58:52;47.78;;;25.52;;
42978;SDS011;28616;44.746;19.678;2023-01-30T08:01:19;44.97;;;22.75;;
42978;SDS011;28616;44.746;19.678;2023-01-30T08:03:45;50.58;;;23.92;;
42978;SDS011;28616;44.746;19.678;2023-01-30T08:06:13;38.50;;;18.27;;
42978;SDS011;28616;44.746;19.678;2023-01-30T08:08:39;40.95;;;21.35;;
42978;SDS011;28616;44.746;19.678;2023-01-30T08:11:05;27.35;;;13.88;;
42978;SDS011;28616;44.746;19.678;2023-01-30T08:13:31;46.95;;;21.55;;
42978;SDS011;28616;44.746;19.678;2023-01-30T08:16:03;34.88;;;17.08;;
42978;SDS011;28616;44.746;19.678;2023-01-30T08:18:31;58.15;;;27.55;;
42978;SDS011;28616;44.746;19.678;2023-01-30T08:20:58;67.57;;;31.67;;
42978;SDS011;28616;44.746;19.678;2023-01-30T08:23:24;81.65;;;35.60;;
42978;SDS011;28616;44.746;19.678;2023-01-30T08:26:01;73.55;;;34.40;;
42978;SDS011;28616;44.746;19.678;2023-01-30T08:28:27;127.53;;;59.13;;
42978;SDS011;28616;44.746;19.678;2023-01-30T08:30:54;90.00;;;42.85;;
42978;SDS011;28616;44.746;19.678;2023-01-30T08:33:20;47.17;;;23.98;;
42978;SDS011;28616;44.746;19.678;2023-01-30T08:35:47;95.28;;;43.97;;
42978;SDS011;28616;44.746;19.678;2023-01-30T08:38:13;138.93;;;62.90;;
42978;SDS011;28616;44.746;19.678;2023-01-30T08:40:39;83.05;;;39.20;;
42978;SDS011;28616;44.746;19.678;2023-01-30T08:43:05;93.68;;;49.10;;
42978;SDS011;28616;44.746;19.678;2023-01-30T08:45:31;64.57;;;31.70;;
42978;SDS011;28616;44.746;19.678;2023-01-30T08:48:00;89.32;;;38.17;;
42978;SDS011;28616;44.746;19.678;2023-01-30T08:50:28;80.50;;;35.33;;
42978;SDS011;28616;44.746;19.678;2023-01-30T08:52:53;49.00;;;22.90;;
42978;SDS011;28616;44.746;19.678;2023-01-30T08:55:19;51.38;;;24.80;;
42978;SDS011;28616;44.746;19.678;2023-01-30T08:57:46;154.63;;;59.58;;
42978;SDS011;28616;44.746;19.678;2023-01-30T09:00:12;63.47;;;26.45;;
42978;SDS011;28616;44.746;19.678;2023-01-30T09:02:39;85.75;;;34.28;;
42978;SDS011;28616;44.746;19.678;2023-01-30T09:05:05;44.80;;;23.65;;
42978;SDS011;28616;44.746;19.678;2023-01-30T09:07:31;43.65;;;21.05;;
42978;SDS011;28616;44.746;19.678;2023-01-30T09:09:57;35.28;;;17.92;;
42978;SDS011;28616;44.746;19.678;2023-01-30T09:12:23;40.17;;;18.83;;
42978;SDS011;28616;44.746;19.678;2023-01-30T09:14:49;40.67;;;19.23;;
42978;SDS011;28616;44.746;19.678;2023-01-30T09:17:17;44.30;;;22.52;;
42978;SDS011;28616;44.746;19.678;2023-01-30T09:19:42;43.38;;;23.30;;
42978;SDS011;28616;44.746;19.678;2023-01-30T09:22:08;33.08;;;18.52;;
42978;SDS011;28616;44.746;19.678;2023-01-30T09:24:34;33.50;;;17.42;;
42978;SDS011;28616;44.746;19.678;2023-01-30T09:27:00;46.25;;;17.35;;
42978;SDS011;28616;44.746;19.678;2023-01-30T09:29:26;42.03;;;19.77;;
42978;SDS011;28616;44.746;19.678;2023-01-30T09:31:52;43.03;;;19.65;;
42978;SDS011;28616;44.746;19.678;2023-01-30T09:34:20;100.13;;;42.53;;
42978;SDS011;28616;44.746;19.678;2023-01-30T09:36:59;85.47;;;35.63;;
42978;SDS011;28616;44.746;19.678;2023-01-30T09:39:26;32.08;;;16.23;;
42978;SDS011;28616;44.746;19.678;2023-01-30T09:41:59;39.13;;;20.33;;
42978;SDS011;28616;44.746;19.678;2023-01-30T09:44:41;45.97;;;20.77;;
42978;SDS011;28616;44.746;19.678;2023-01-30T09:47:13;30.58;;;15.50;;
42978;SDS011;28616;44.746;19.678;2023-01-30T09:55:18;40.58;;;19.77;;
42978;SDS011;28616;44.746;19.678;2023-01-30T09:57:47;51.38;;;21.90;;
42978;SDS011;28616;44.746;19.678;2023-01-30T10:06:19;30.45;;;15.77;;
42978;SDS011;28616;44.746;19.678;2023-01-30T10:11:32;36.08;;;17.73;;
42978;SDS011;28616;44.746;19.678;2023-01-30T10:14:21;30.50;;;16.73;;
42978;SDS011;28616;44.746;19.678;2023-01-30T10:25:35;35.05;;;17.92;;
42978;SDS011;28616;44.746;19.678;2023-01-30T10:31:00;34.05;;;18.65;;
42978;SDS011;28616;44.746;19.678;2023-01-30T10:36:13;29.88;;;15.68;;
42978;SDS011;28616;44.746;19.678;2023-01-30T10:41:21;63.20;;;27.65;;
42978;SDS011;28616;44.746;19.678;2023-01-30T10:44:05;73.82;;;32.13;;
42978;SDS011;28616;44.746;19.678;2023-01-30T10:55:16;68.30;;;32.25;;
42978;SDS011;28616;44.746;19.678;2023-01-30T11:00:37;49.85;;;23.30;;
42978;SDS011;28616;44.746;19.678;2023-01-30T11:03:32;46.85;;;21.75;;
42978;SDS011;28616;44.746;19.678;2023-01-30T11:06:21;66.50;;;26.90;;
42978;SDS011;28616;44.746;19.678;2023-01-30T11:08:49;44.22;;;19.67;;
42978;SDS011;28616;44.746;19.678;2023-01-30T11:11:26;40.22;;;18.67;;
42978;SDS011;28616;44.746;19.678;2023-01-30T11:14:09;37.53;;;18.48;;
42978;SDS011;28616;44.746;19.678;2023-01-30T11:16:45;90.45;;;33.60;;
42978;SDS011;28616;44.746;19.678;2023-01-30T11:19:12;82.22;;;39.22;;
42978;SDS011;28616;44.746;19.678;2023-01-30T11:21:41;56.83;;;24.08;;
42978;SDS011;28616;44.746;19.678;2023-01-30T11:24:17;45.92;;;20.83;;
42978;SDS011;28616;44.746;19.678;2023-01-30T11:26:44;50.80;;;22.33;;
42978;SDS011;28616;44.746;19.678;2023-01-30T11:29:52;43.30;;;19.02;;
42978;SDS011;28616;44.746;19.678;2023-01-30T11:32:03;41.88;;;20.58;;
42978;SDS011;28616;44.746;19.678;2023-01-30T11:34:35;47.28;;;22.17;;
42978;SDS011;28616;44.746;19.678;2023-01-30T11:37:11;57.20;;;25.35;;
42978;SDS011;28616;44.746;19.678;2023-01-30T11:39:56;45.17;;;20.70;;
42978;SDS011;28616;44.746;19.678;2023-01-30T11:42:24;42.33;;;20.27;;
42978;SDS011;28616;44.746;19.678;2023-01-30T11:44:55;43.35;;;21.08;;
42978;SDS011;28616;44.746;19.678;2023-01-30T11:47:24;43.58;;;19.98;;
42978;SDS011;28616;44.746;19.678;2023-01-30T11:49:52;46.17;;;23.60;;
42978;SDS011;28616;44.746;19.678;2023-01-30T11:52:33;51.30;;;25.35;;
42978;SDS011;28616;44.746;19.678;2023-01-30T11:55:02;54.35;;;26.40;;
42978;SDS011;28616;44.746;19.678;2023-01-30T11:57:44;57.35;;;27.25;;
42978;SDS011;28616;44.746;19.678;2023-01-30T12:00:18;61.33;;;25.35;;
42978;SDS011;28616;44.746;19.678;2023-01-30T12:02:46;47.45;;;23.15;;
42978;SDS011;28616;44.746;19.678;2023-01-30T12:05:32;54.22;;;23.75;;
42978;SDS011;28616;44.746;19.678;2023-01-30T12:10:45;49.22;;;24.33;;
42978;SDS011;28616;44.746;19.678;2023-01-30T12:16:25;53.13;;;25.42;;
42978;SDS011;28616;44.746;19.678;2023-01-30T12:27:57;37.85;;;18.25;;
42978;SDS011;28616;44.746;19.678;2023-01-30T12:32:57;63.03;;;28.67;;
42978;SDS011;28616;44.746;19.678;2023-01-30T12:35:28;41.67;;;19.58;;
42978;SDS011;28616;44.746;19.678;2023-01-30T12:38:20;50.65;;;21.67;;
42978;SDS011;28616;44.746;19.678;2023-01-30T12:54:53;57.35;;;25.63;;
42978;SDS011;28616;44.746;19.678;2023-01-30T12:57:38;48.88;;;24.17;;
42978;SDS011;28616;44.746;19.678;2023-01-30T13:11:39;161.00;;;66.30;;
42978;SDS011;28616;44.746;19.678;2023-01-30T13:19:45;896.25;;;330.88;;
42978;SDS011;28616;44.746;19.678;2023-01-30T13:28:22;47.38;;;21.02;;
42978;SDS011;28616;44.746;19.678;2023-01-30T13:30:51;61.97;;;27.05;;
42978;SDS011;28616;44.746;19.678;2023-01-30T13:33:27;46.17;;;19.73;;
42978;SDS011;28616;44.746;19.678;2023-01-30T13:41:22;76.45;;;32.92;;
42978;SDS011;28616;44.746;19.678;2023-01-30T13:43:50;46.78;;;20.20;;
42978;SDS011;28616;44.746;19.678;2023-01-30T13:46:22;57.30;;;24.38;;
42978;SDS011;28616;44.746;19.678;2023-01-30T13:51:46;56.95;;;23.95;;
42978;SDS011;28616;44.746;19.678;2023-01-30T13:56:57;80.63;;;33.28;;
42978;SDS011;28616;44.746;19.678;2023-01-30T14:08:26;83.60;;;35.58;;
42978;SDS011;28616;44.746;19.678;2023-01-30T14:10:53;45.00;;;19.67;;
42978;SDS011;28616;44.746;19.678;2023-01-30T14:13:21;56.05;;;25.42;;
42978;SDS011;28616;44.746;19.678;2023-01-30T14:16:04;138.30;;;57.38;;
42978;SDS011;28616;44.746;19.678;2023-01-30T14:24:01;120.30;;;56.08;;
42978;SDS011;28616;44.746;19.678;2023-01-30T14:39:52;689.80;;;332.15;;
42978;SDS011;28616;44.746;19.678;2023-01-30T14:42:29;167.15;;;73.30;;
42978;SDS011;28616;44.746;19.678;2023-01-30T14:47:40;146.20;;;64.93;;
42978;SDS011;28616;44.746;19.678;2023-01-30T14:50:19;167.13;;;83.90;;
42978;SDS011;28616;44.746;19.678;2023-01-30T14:52:47;92.20;;;41.75;;
42978;SDS011;28616;44.746;19.678;2023-01-30T14:55:15;90.15;;;41.45;;
42978;SDS011;28616;44.746;19.678;2023-01-30T14:58:02;117.03;;;56.53;;
42978;SDS011;28616;44.746;19.678;2023-01-30T15:00:29;113.80;;;44.85;;
42978;SDS011;28616;44.746;19.678;2023-01-30T15:02:58;105.88;;;45.92;;
42978;SDS011;28616;44.746;19.678;2023-01-30T15:05:31;389.25;;;167.35;;
42978;SDS011;28616;44.746;19.678;2023-01-30T15:08:03;295.58;;;143.52;;
42978;SDS011;28616;44.746;19.678;2023-01-30T15:16:05;196.27;;;83.95;;
42978;SDS011;28616;44.746;19.678;2023-01-30T15:21:34;150.85;;;61.97;;
42978;SDS011;28616;44.746;19.678;2023-01-30T15:27:12;132.85;;;54.25;;
42978;SDS011;28616;44.746;19.678;2023-01-30T15:32:20;304.20;;;119.85;;
42978;SDS011;28616;44.746;19.678;2023-01-30T15:37:45;270.83;;;104.40;;
42978;SDS011;28616;44.746;19.678;2023-01-30T15:50:48;203.23;;;84.60;;
42978;SDS011;28616;44.746;19.678;2023-01-30T15:53:29;199.05;;;84.68;;
42978;SDS011;28616;44.746;19.678;2023-01-30T15:55:59;212.07;;;93.13;;
42978;SDS011;28616;44.746;19.678;2023-01-30T15:58:26;191.85;;;84.30;;
42978;SDS011;28616;44.746;19.678;2023-01-30T16:00:55;216.63;;;91.78;;
42978;SDS011;28616;44.746;19.678;2023-01-30T16:03:26;203.23;;;83.50;;
42978;SDS011;28616;44.746;19.678;2023-01-30T16:05:55;200.85;;;87.18;;
42978;SDS011;28616;44.746;19.678;2023-01-30T16:08:24;196.35;;;83.82;;
42978;SDS011;28616;44.746;19.678;2023-01-30T16:10:52;195.10;;;84.15;;
42978;SDS011;28616;44.746;19.678;2023-01-30T16:13:20;169.85;;;76.65;;
42978;SDS011;28616;44.746;19.678;2023-01-30T16:21:14;168.27;;;75.97;;
42978;SDS011;28616;44.746;19.678;2023-01-30T16:23:55;171.80;;;79.38;;
42978;SDS011;28616;44.746;19.678;2023-01-30T16:26:23;225.57;;;96.43;;
42978;SDS011;28616;44.746;19.678;2023-01-30T16:28:49;250.27;;;108.18;;
42978;SDS011;28616;44.746;19.678;2023-01-30T16:31:22;262.85;;;118.65;;
42978;SDS011;28616;44.746;19.678;2023-01-30T16:33:52;313.98;;;142.45;;
42978;SDS011;28616;44.746;19.678;2023-01-30T16:38:44;485.50;;;210.75;;
42978;SDS011;28616;44.746;19.678;2023-01-30T16:49:08;380.08;;;156.05;;
42978;SDS011;28616;44.746;19.678;2023-01-30T16:51:40;315.08;;;135.45;;
42978;SDS011;28616;44.746;19.678;2023-01-30T16:54:11;347.27;;;151.40;;
42978;SDS011;28616;44.746;19.678;2023-01-30T16:56:52;303.10;;;133.02;;
42978;SDS011;28616;44.746;19.678;2023-01-30T16:59:20;303.88;;;133.38;;
42978;SDS011;28616;44.746;19.678;2023-01-30T17:01:54;386.60;;;169.38;;
42978;SDS011;28616;44.746;19.678;2023-01-30T17:04:23;354.48;;;149.10;;
42978;SDS011;28616;44.746;19.678;2023-01-30T17:06:57;376.98;;;156.95;;
42978;SDS011;28616;44.746;19.678;2023-01-30T17:17:39;531.13;;;230.32;;
42978;SDS011;28616;44.746;19.678;2023-01-30T17:20:06;447.02;;;198.70;;
42978;SDS011;28616;44.746;19.678;2023-01-30T17:22:32;460.90;;;232.57;;
42978;SDS011;28616;44.746;19.678;2023-01-30T17:25:03;620.25;;;315.35;;
42978;SDS011;28616;44.746;19.678;2023-01-30T17:27:31;466.33;;;228.02;;
42978;SDS011;28616;44.746;19.678;2023-01-30T17:29:58;448.67;;;227.25;;
42978;SDS011;28616;44.746;19.678;2023-01-30T17:32:24;480.52;;;234.82;;
42978;SDS011;28616;44.746;19.678;2023-01-30T17:34:50;597.60;;;337.33;;
42978;SDS011;28616;44.746;19.678;2023-01-30T17:37:16;531.40;;;276.45;;
42978;SDS011;28616;44.746;19.678;2023-01-30T17:39:45;486.95;;;231.25;;
42978;SDS011;28616;44.746;19.678;2023-01-30T17:42:12;419.40;;;193.23;;
42978;SDS011;28616;44.746;19.678;2023-01-30T17:44:39;344.30;;;153.32;;
42978;SDS011;28616;44.746;19.678;2023-01-30T17:47:05;251.90;;;116.10;;
42978;SDS011;28616;44.746;19.678;2023-01-30T17:49:31;269.05;;;112.38;;
42978;SDS011;28616;44.746;19.678;2023-01-30T17:51:57;150.77;;;64.53;;
42978;SDS011;28616;44.746;19.678;2023-01-30T17:54:24;183.43;;;75.63;;
42978;SDS011;28616;44.746;19.678;2023-01-30T17:56:51;145.80;;;58.60;;
42978;SDS011;28616;44.746;19.678;2023-01-30T17:59:23;171.43;;;69.70;;
42978;SDS011;28616;44.746;19.678;2023-01-30T18:01:49;178.30;;;77.28;;
42978;SDS011;28616;44.746;19.678;2023-01-30T18:04:16;149.88;;;61.35;;
42978;SDS011;28616;44.746;19.678;2023-01-30T18:06:44;186.27;;;81.55;;
42978;SDS011;28616;44.746;19.678;2023-01-30T18:09:16;204.15;;;83.82;;